createdAt,value
2023-04-30T00:00:16.087Z,8.60
2023-04-30T00:02:44.047Z,3.20
2023-04-30T00:05:12.106Z,6.00
2023-04-30T00:07:42.564Z,9.20
2023-04-30T00:10:10.317Z,7.20
2023-04-30T00:12:37.989Z,9.00
2023-04-30T00:15:05.625Z,10.40
2023-04-30T00:17:33.652Z,6.20
2023-04-30T00:20:01.425Z,9.00
2023-04-30T00:22:29.071Z,9.00
2023-04-30T00:24:56.662Z,6.60
2023-04-30T00:27:24.476Z,7.40
2023-04-30T00:29:52.784Z,9.00
2023-04-30T00:32:21.704Z,5.60
2023-04-30T00:34:49.464Z,7.00
2023-04-30T00:37:17.085Z,7.00
2023-04-30T00:39:44.641Z,7.40
2023-04-30T00:42:12.631Z,8.20
2023-04-30T00:44:40.568Z,7.00
2023-04-30T00:47:08.155Z,9.80
2023-04-30T00:49:35.787Z,17.20
2023-04-30T00:52:03.728Z,14.40
2023-04-30T00:54:31.987Z,14.60
2023-04-30T00:56:59.665Z,16.40
2023-04-30T00:59:27.218Z,12.00
2023-04-30T01:01:54.830Z,10.80
2023-04-30T01:04:22.438Z,9.00
2023-04-30T01:06:50.465Z,10.00
2023-04-30T01:09:18.041Z,8.80
2023-04-30T01:11:45.734Z,9.00
2023-04-30T01:14:13.355Z,3.40
2023-04-30T01:16:42.397Z,13.00
2023-04-30T01:19:10.720Z,8.40
2023-04-30T01:21:38.546Z,9.40
2023-04-30T01:24:06.114Z,10.00
2023-04-30T01:26:33.725Z,10.20
2023-04-30T01:29:01.278Z,9.00
2023-04-30T01:31:29.223Z,14.60
2023-04-30T01:33:56.900Z,17.40
2023-04-30T01:36:24.452Z,21.60
2023-04-30T01:38:52.067Z,10.00
2023-04-30T01:41:19.664Z,12.80
2023-04-30T01:43:47.254Z,15.60
2023-04-30T01:46:14.823Z,11.00
2023-04-30T01:48:42.516Z,10.00
2023-04-30T01:51:10.564Z,12.80
2023-04-30T01:53:38.158Z,11.20
2023-04-30T01:56:06.192Z,7.00
2023-04-30T01:58:34.568Z,10.00
2023-04-30T02:01:02.157Z,5.00
2023-04-30T02:03:29.949Z,10.00
2023-04-30T02:05:59.220Z,8.60
2023-04-30T02:08:27.687Z,7.80
2023-04-30T02:10:55.516Z,9.20
2023-04-30T02:13:23.058Z,8.60
2023-04-30T02:15:50.688Z,11.60
2023-04-30T02:18:18.447Z,7.60
2023-04-30T02:20:46.494Z,4.40
2023-04-30T02:23:14.141Z,9.80
2023-04-30T02:25:41.776Z,12.20
2023-04-30T02:28:09.331Z,9.00
2023-04-30T02:30:36.893Z,9.20
2023-04-30T02:33:05.677Z,5.80
2023-04-30T02:35:33.326Z,10.00
2023-04-30T02:38:00.866Z,12.40
2023-04-30T02:40:28.443Z,13.20
2023-04-30T02:42:56.928Z,13.40
2023-04-30T02:45:24.908Z,3.80
2023-04-30T02:47:52.761Z,9.00
2023-04-30T02:50:20.520Z,10.00
2023-04-30T02:52:48.184Z,11.60
2023-04-30T02:55:15.783Z,6.40
2023-04-30T02:57:49.474Z,9.60
2023-04-30T03:00:17.746Z,10.40
2023-04-30T03:02:45.656Z,8.60
2023-04-30T03:05:13.305Z,10.80
2023-04-30T03:07:40.923Z,12.40
2023-04-30T03:10:08.892Z,6.00
2023-04-30T03:12:36.521Z,6.20
2023-04-30T03:15:04.256Z,10.40
2023-04-30T03:17:31.823Z,11.60
2023-04-30T03:19:59.429Z,8.40
2023-04-30T03:22:27.368Z,12.60
2023-04-30T03:24:56.333Z,7.00
2023-04-30T03:27:23.981Z,15.80
2023-04-30T03:29:52.066Z,15.20
2023-04-30T03:32:19.809Z,14.60
2023-04-30T03:34:47.886Z,15.80
2023-04-30T03:37:15.485Z,12.20
2023-04-30T03:39:43.066Z,14.80
2023-04-30T03:42:10.817Z,9.80
2023-04-30T03:44:39.597Z,13.80
2023-04-30T03:47:07.828Z,12.20
2023-04-30T03:49:35.745Z,14.80
2023-04-30T03:52:03.703Z,14.20
2023-04-30T03:54:31.326Z,8.20
2023-04-30T03:56:58.882Z,14.20
2023-04-30T03:59:26.958Z,16.00
2023-04-30T04:01:54.589Z,16.80
2023-04-30T04:04:22.318Z,13.80
2023-04-30T04:06:49.916Z,11.80
2023-04-30T04:09:17.478Z,14.60
2023-04-30T04:11:45.270Z,11.60
2023-04-30T04:14:13.253Z,10.80
2023-04-30T04:16:40.869Z,15.40
2023-04-30T04:19:08.469Z,8.80
2023-04-30T04:21:36.113Z,9.40
2023-04-30T04:24:08.977Z,9.40
2023-04-30T04:26:36.586Z,10.00
2023-04-30T04:29:04.759Z,9.40
2023-04-30T04:31:32.443Z,9.40
2023-04-30T04:34:00.537Z,10.00
2023-04-30T04:36:29.218Z,7.80
2023-04-30T04:38:57.769Z,10.00
2023-04-30T04:41:26.813Z,6.60
2023-04-30T04:43:54.397Z,12.00
2023-04-30T04:46:22.706Z,10.80
2023-04-30T04:48:50.500Z,15.00
2023-04-30T04:51:19.239Z,19.00
2023-04-30T04:53:46.867Z,12.00
2023-04-30T04:56:14.479Z,13.00
2023-04-30T04:58:42.079Z,11.40
2023-04-30T05:01:10.054Z,16.40
2023-04-30T05:03:38.293Z,15.40
2023-04-30T05:06:06.048Z,9.00
2023-04-30T05:08:33.680Z,10.00
2023-04-30T05:11:01.264Z,16.00
2023-04-30T05:13:29.525Z,21.00
2023-04-30T05:15:57.327Z,21.60
2023-04-30T05:18:24.992Z,20.60
2023-04-30T05:20:52.560Z,18.00
2023-04-30T05:23:20.145Z,13.40
2023-04-30T05:25:48.149Z,13.60
2023-04-30T05:28:15.771Z,12.00
2023-04-30T05:30:43.429Z,8.60
2023-04-30T05:35:39.460Z,8.20
2023-04-30T05:38:07.219Z,10.80
2023-04-30T05:40:35.067Z,11.60
2023-04-30T05:43:02.678Z,12.20
2023-04-30T05:45:30.323Z,12.00
2023-04-30T05:47:58.002Z,6.80
2023-04-30T05:50:26.052Z,9.00
2023-04-30T05:52:53.646Z,11.60
2023-04-30T05:55:21.254Z,17.60
2023-04-30T05:57:49.170Z,10.00
2023-04-30T06:00:17.051Z,10.60
2023-04-30T06:02:45.042Z,9.00
2023-04-30T06:05:15.344Z,14.20
2023-04-30T06:07:43.760Z,15.20
2023-04-30T06:10:12.756Z,16.40
2023-04-30T06:12:40.587Z,18.00
2023-04-30T06:15:08.542Z,15.60
2023-04-30T06:17:36.557Z,13.00
2023-04-30T06:20:07.202Z,15.40
2023-04-30T06:22:34.907Z,12.80
2023-04-30T06:25:03.656Z,16.00
2023-04-30T06:27:32.723Z,11.60
2023-04-30T06:30:01.175Z,12.60
2023-04-30T06:32:28.847Z,11.00
2023-04-30T06:34:56.475Z,11.00
2023-04-30T06:37:24.056Z,11.00
2023-04-30T06:39:52.120Z,15.25
2023-04-30T06:42:19.747Z,15.25
2023-04-30T06:44:47.413Z,12.00
2023-04-30T06:47:15.205Z,11.00
2023-04-30T06:49:42.823Z,16.00
2023-04-30T06:52:10.849Z,7.50
2023-04-30T06:54:38.672Z,6.75
2023-04-30T06:57:07.324Z,9.50
2023-04-30T06:59:34.937Z,6.00
2023-04-30T07:02:02.628Z,9.25
2023-04-30T07:04:31.272Z,9.75
2023-04-30T07:07:02.222Z,11.50
2023-04-30T07:09:30.242Z,6.25
2023-04-30T07:11:58.807Z,15.00
2023-04-30T07:14:26.381Z,5.00
2023-04-30T07:16:54.009Z,11.50
2023-04-30T07:19:21.584Z,12.25
2023-04-30T07:21:49.258Z,8.25
2023-04-30T07:24:17.067Z,16.50
2023-04-30T07:26:45.021Z,9.00
2023-04-30T07:29:13.189Z,13.75
2023-04-30T07:31:40.973Z,12.75
2023-04-30T07:34:08.952Z,12.50
2023-04-30T07:36:38.688Z,10.75
2023-04-30T07:39:07.460Z,10.00
2023-04-30T07:41:35.540Z,13.00
2023-04-30T07:44:03.728Z,13.00
2023-04-30T07:46:31.393Z,12.00
2023-04-30T07:48:59.373Z,17.00
2023-04-30T07:51:27.576Z,9.00
2023-04-30T07:53:55.679Z,9.00
2023-04-30T07:56:23.647Z,10.00
2023-04-30T07:58:51.423Z,13.25
2023-04-30T08:01:19.189Z,13.00
2023-04-30T08:03:47.063Z,11.50
2023-04-30T08:06:15.196Z,10.50
2023-04-30T08:08:43.150Z,12.00
2023-04-30T08:11:10.927Z,12.50
2023-04-30T08:13:38.704Z,12.50
2023-04-30T08:16:06.565Z,13.75
2023-04-30T08:18:34.689Z,10.75
2023-04-30T08:21:02.459Z,10.75
2023-04-30T08:23:30.179Z,11.25
2023-04-30T08:25:57.911Z,10.00
2023-04-30T08:28:25.622Z,6.00
2023-04-30T08:30:53.574Z,10.00
2023-04-30T08:33:23.203Z,10.00
2023-04-30T08:35:51.221Z,12.00
2023-04-30T08:38:19.122Z,9.00
2023-04-30T08:40:51.664Z,8.00
2023-04-30T08:43:20.589Z,7.50
2023-04-30T08:45:48.505Z,7.50
2023-04-30T08:48:16.831Z,6.50
2023-04-30T08:50:44.839Z,7.00
2023-04-30T08:53:12.576Z,7.50
2023-04-30T08:55:41.095Z,8.00
2023-04-30T08:58:10.753Z,8.00
2023-04-30T09:00:38.543Z,4.50
2023-04-30T09:03:06.629Z,6.50
2023-04-30T09:05:34.614Z,8.50
2023-04-30T09:08:04.303Z,6.00
2023-04-30T09:10:32.344Z,4.00
2023-04-30T09:13:00.119Z,8.00
2023-04-30T09:15:27.858Z,4.50
2023-04-30T09:17:56.196Z,3.00
2023-04-30T09:20:26.834Z,4.00
2023-04-30T09:22:54.608Z,7.00
2023-04-30T09:25:22.337Z,7.00
2023-04-30T09:27:50.264Z,9.00
2023-04-30T09:30:18.194Z,7.00
2023-04-30T09:32:46.612Z,12.50
2023-04-30T09:35:14.633Z,5.60
2023-04-30T09:37:42.390Z,7.00
2023-04-30T09:40:10.056Z,7.80
2023-04-30T09:42:37.929Z,9.60
2023-04-30T09:45:06.046Z,9.40
2023-04-30T09:47:33.769Z,6.80
2023-04-30T09:50:01.559Z,10.80
2023-04-30T09:52:29.372Z,9.00
2023-04-30T09:54:57.123Z,6.00
2023-04-30T09:57:25.608Z,4.00
2023-04-30T09:59:54.137Z,5.20
2023-04-30T10:02:23.914Z,4.00
2023-04-30T10:04:51.984Z,4.60
2023-04-30T10:07:21.759Z,4.40
2023-04-30T10:09:50.871Z,2.00
2023-04-30T10:12:19.137Z,4.40
2023-04-30T10:14:47.454Z,2.40
2023-04-30T10:17:15.351Z,4.40
2023-04-30T10:19:44.034Z,2.80
2023-04-30T10:22:13.377Z,4.00
2023-04-30T10:24:42.084Z,4.00
2023-04-30T10:27:10.018Z,4.00
2023-04-30T10:29:37.745Z,5.20
2023-04-30T10:32:06.040Z,5.40
2023-04-30T10:34:34.278Z,6.00
2023-04-30T10:37:02.392Z,5.00
2023-04-30T10:39:30.287Z,6.00
2023-04-30T10:41:58.203Z,1.60
2023-04-30T10:44:26.038Z,8.20
2023-04-30T10:46:54.471Z,5.20
2023-04-30T10:49:22.436Z,6.20
2023-04-30T10:51:51.951Z,7.60
2023-04-30T10:54:19.825Z,7.00
2023-04-30T10:56:48.780Z,3.80
2023-04-30T10:59:17.006Z,7.60
2023-04-30T11:01:45.154Z,4.00
2023-04-30T11:04:13.185Z,3.60
2023-04-30T11:06:41.960Z,5.60
2023-04-30T11:09:10.586Z,6.60
2023-04-30T11:11:38.977Z,6.00
2023-04-30T11:14:06.833Z,6.80
2023-04-30T11:16:35.113Z,6.40
2023-04-30T11:19:03.147Z,6.20
2023-04-30T11:21:30.961Z,3.40
2023-04-30T11:23:58.965Z,3.20
2023-04-30T11:26:27.182Z,7.00
2023-04-30T11:28:55.389Z,6.80
2023-04-30T11:31:23.319Z,3.00
2023-04-30T11:33:51.163Z,3.80
2023-04-30T11:36:19.051Z,4.60
2023-04-30T11:38:47.181Z,5.40
2023-04-30T11:41:15.207Z,3.60
2023-04-30T11:43:42.943Z,6.00
2023-04-30T11:46:10.817Z,6.60
2023-04-30T11:48:39.370Z,4.60
2023-04-30T11:51:10.864Z,7.00
2023-04-30T11:53:38.764Z,4.80
2023-04-30T11:56:06.653Z,4.60
2023-04-30T11:58:34.549Z,5.80
2023-04-30T12:01:02.781Z,4.00
2023-04-30T12:03:31.459Z,3.80
2023-04-30T12:05:59.374Z,5.00
2023-04-30T12:08:27.404Z,4.00
2023-04-30T12:10:55.416Z,5.00
2023-04-30T12:13:23.775Z,7.00
2023-04-30T12:15:51.742Z,5.00
2023-04-30T12:18:19.690Z,3.60
2023-04-30T12:20:47.501Z,3.80
2023-04-30T12:23:15.398Z,3.40
2023-04-30T12:25:44.468Z,3.60
2023-04-30T12:28:12.536Z,4.00
2023-04-30T12:30:40.311Z,4.00
2023-04-30T12:33:08.064Z,2.00
2023-04-30T12:35:36.176Z,1.00
2023-04-30T12:38:04.604Z,2.20
2023-04-30T12:40:32.587Z,3.00
2023-04-30T12:43:00.638Z,2.60
2023-04-30T12:45:28.466Z,2.60
2023-04-30T12:47:56.462Z,2.00
2023-04-30T12:50:24.652Z,2.20
2023-04-30T12:52:52.480Z,3.60
2023-04-30T12:55:21.184Z,3.00
2023-04-30T12:57:49.254Z,2.00
2023-04-30T13:00:17.387Z,2.20
2023-04-30T13:02:46.035Z,1.00
2023-04-30T13:05:15.966Z,2.80
2023-04-30T13:07:44.349Z,4.40
2023-04-30T13:10:12.392Z,3.00
2023-04-30T13:12:40.352Z,3.80
2023-04-30T13:15:08.514Z,1.40
2023-04-30T13:17:37.034Z,2.00
2023-04-30T13:20:05.310Z,2.00
2023-04-30T13:22:33.193Z,0.00
2023-04-30T13:25:01.172Z,1.00
2023-04-30T13:27:29.594Z,2.00
2023-04-30T13:29:58.111Z,2.80
2023-04-30T13:32:26.373Z,2.00
2023-04-30T13:34:56.171Z,2.40
2023-04-30T13:37:24.058Z,2.00
2023-04-30T13:39:52.496Z,2.40
2023-04-30T13:42:20.469Z,3.00
2023-04-30T13:44:50.147Z,2.00
2023-04-30T13:47:18.054Z,2.00
2023-04-30T13:49:45.871Z,2.00
2023-04-30T13:52:14.005Z,1.00
2023-04-30T13:54:41.807Z,2.80
2023-04-30T13:57:09.821Z,2.20
2023-04-30T13:59:38.738Z,3.00
2023-04-30T14:02:06.704Z,1.40
2023-04-30T14:04:35.177Z,3.00
2023-04-30T14:07:03.538Z,2.60
2023-04-30T14:09:31.741Z,2.40
2023-04-30T14:11:59.798Z,2.80
2023-04-30T14:14:27.701Z,2.80
2023-04-30T14:16:56.489Z,1.00
2023-04-30T14:19:24.528Z,3.00
2023-04-30T14:21:52.357Z,3.00
2023-04-30T14:24:21.874Z,3.00
2023-04-30T14:26:50.074Z,2.00
2023-04-30T14:29:21.596Z,2.20
2023-04-30T14:31:50.284Z,2.20
2023-04-30T14:34:18.241Z,1.40
2023-04-30T14:36:46.158Z,1.80
2023-04-30T14:39:14.425Z,2.00
2023-04-30T14:41:42.521Z,2.00
2023-04-30T14:44:10.742Z,2.00
2023-04-30T14:46:38.555Z,3.00
2023-04-30T14:49:08.176Z,3.80
2023-04-30T14:51:36.253Z,2.20
2023-04-30T14:54:04.336Z,2.80
2023-04-30T14:56:32.408Z,2.60
2023-04-30T14:59:00.308Z,2.00
2023-04-30T15:01:28.857Z,3.00
2023-04-30T15:03:56.857Z,2.00
2023-04-30T15:06:25.325Z,2.40
2023-04-30T15:08:53.404Z,2.20
2023-04-30T15:11:21.378Z,2.00
2023-04-30T15:13:49.290Z,2.80
2023-04-30T15:16:17.466Z,2.00
2023-04-30T15:18:45.808Z,2.40
2023-04-30T15:21:13.779Z,1.00
2023-04-30T15:23:41.742Z,3.00
2023-04-30T15:26:09.703Z,3.00
2023-04-30T15:28:37.584Z,2.40
2023-04-30T15:31:07.020Z,1.00
2023-04-30T15:33:39.777Z,1.00
2023-04-30T15:36:07.800Z,2.00
2023-04-30T15:38:35.602Z,2.00
2023-04-30T15:41:03.415Z,2.00
2023-04-30T15:43:32.618Z,1.80
2023-04-30T15:46:00.848Z,1.00
2023-04-30T15:48:29.024Z,1.40
2023-04-30T15:50:58.144Z,1.60
2023-04-30T15:53:26.073Z,1.00
2023-04-30T15:55:58.119Z,1.00
2023-04-30T15:58:26.199Z,1.80
2023-04-30T16:00:54.140Z,1.60
2023-04-30T16:03:22.109Z,0.60
2023-04-30T16:05:50.162Z,0.00
2023-04-30T16:08:18.440Z,2.00
2023-04-30T16:10:46.412Z,2.00
2023-04-30T16:13:14.484Z,1.60
2023-04-30T16:15:42.295Z,1.40
2023-04-30T16:18:10.582Z,1.60
2023-04-30T16:20:38.734Z,2.20
2023-04-30T16:23:06.695Z,2.00
2023-04-30T16:25:34.580Z,1.20
2023-04-30T16:28:02.510Z,1.40
2023-04-30T16:30:30.299Z,1.00
2023-04-30T16:32:58.776Z,1.00
2023-04-30T16:35:26.997Z,1.40
2023-04-30T16:37:54.879Z,1.00
2023-04-30T16:40:22.902Z,1.80
2023-04-30T16:42:51.369Z,1.00
2023-04-30T16:45:19.901Z,1.00
2023-04-30T16:47:48.923Z,1.80
2023-04-30T16:50:16.852Z,2.40
2023-04-30T16:52:44.723Z,1.00
2023-04-30T16:55:12.522Z,2.00
2023-04-30T16:57:40.913Z,3.60
2023-04-30T17:00:11.599Z,1.00
2023-04-30T17:02:41.102Z,2.00
2023-04-30T17:05:09.795Z,0.80
2023-04-30T17:07:37.656Z,1.00
2023-04-30T17:10:05.607Z,0.00
2023-04-30T17:12:34.135Z,1.00
2023-04-30T17:15:02.068Z,2.20
2023-04-30T17:17:29.959Z,1.00
2023-04-30T17:19:58.025Z,1.00
2023-04-30T17:22:25.921Z,0.00
2023-04-30T17:24:56.472Z,1.00
2023-04-30T17:27:25.145Z,3.00
2023-04-30T17:29:53.122Z,1.40
2023-04-30T17:32:21.089Z,2.60
2023-04-30T17:34:49.535Z,1.40
2023-04-30T17:37:17.968Z,0.00
2023-04-30T17:39:45.927Z,1.00
2023-04-30T17:42:13.906Z,1.00
2023-04-30T17:44:41.905Z,1.00
2023-04-30T17:47:14.325Z,0.00
2023-04-30T17:49:44.019Z,1.00
2023-04-30T17:52:11.882Z,1.40
2023-04-30T17:54:39.710Z,2.00
2023-04-30T17:57:07.749Z,3.00
2023-04-30T17:59:36.224Z,1.00
2023-04-30T18:02:05.768Z,0.60
2023-04-30T18:04:33.966Z,1.00
2023-04-30T18:07:01.861Z,3.75
2023-04-30T18:09:30.728Z,3.00
2023-04-30T18:12:00.096Z,3.00
2023-04-30T18:14:28.541Z,1.00
2023-04-30T18:16:56.663Z,0.75
2023-04-30T18:19:24.826Z,3.00
2023-04-30T18:21:53.638Z,1.50
2023-04-30T18:24:22.638Z,1.50
2023-04-30T18:26:51.133Z,3.00
2023-04-30T18:29:19.210Z,3.00
2023-04-30T18:31:47.165Z,3.00
2023-04-30T18:34:15.300Z,3.00
2023-04-30T18:36:43.599Z,0.50
2023-04-30T18:39:12.683Z,1.00
2023-04-30T18:41:40.613Z,2.00
2023-04-30T18:44:08.525Z,0.00
2023-04-30T18:46:36.414Z,2.00
2023-04-30T18:49:06.123Z,3.00
2023-04-30T18:51:34.543Z,1.00
2023-04-30T18:54:02.587Z,3.00
2023-04-30T18:56:30.566Z,1.50
2023-04-30T18:58:58.437Z,6.00
2023-04-30T19:01:27.883Z,5.50
2023-04-30T19:03:56.300Z,3.00
2023-04-30T19:06:24.501Z,4.00
2023-04-30T19:08:52.353Z,3.75
2023-04-30T19:11:20.380Z,6.00
2023-04-30T19:13:48.921Z,3.75
2023-04-30T19:16:17.193Z,5.00
2023-04-30T19:18:45.245Z,3.00
2023-04-30T19:21:13.325Z,4.00
2023-04-30T19:23:41.442Z,1.00
2023-04-30T19:26:09.733Z,0.00
2023-04-30T19:28:38.302Z,0.00
2023-04-30T19:31:06.185Z,1.00
2023-04-30T19:33:38.697Z,1.00
2023-04-30T19:36:06.886Z,3.00
2023-04-30T19:38:34.871Z,0.50
2023-04-30T19:41:03.761Z,0.75
2023-04-30T19:43:31.828Z,1.00
2023-04-30T19:45:59.739Z,1.00
2023-04-30T19:48:27.902Z,1.50
2023-04-30T19:50:56.618Z,3.00
2023-04-30T19:53:25.838Z,0.00
2023-04-30T19:55:54.009Z,1.00
2023-04-30T19:58:22.366Z,1.00
2023-04-30T20:00:50.229Z,1.00
2023-04-30T20:03:18.317Z,1.00
2023-04-30T20:05:46.654Z,1.00
2023-04-30T20:08:14.502Z,3.00
2023-04-30T20:10:43.231Z,1.00
2023-04-30T20:13:11.491Z,1.00
2023-04-30T20:15:39.436Z,1.50
2023-04-30T20:18:07.845Z,2.00
2023-04-30T20:20:35.782Z,3.00
2023-04-30T20:23:03.665Z,1.00
2023-04-30T20:25:31.547Z,1.00
2023-04-30T20:27:59.410Z,3.00
2023-04-30T20:30:28.172Z,2.00
2023-04-30T20:32:56.230Z,1.00
2023-04-30T20:35:24.032Z,2.00
2023-04-30T20:37:54.917Z,1.00
2023-04-30T20:40:23.418Z,1.00
2023-04-30T20:42:51.841Z,0.00
2023-04-30T20:45:21.222Z,1.50
2023-04-30T20:47:49.167Z,3.00
2023-04-30T20:50:17.062Z,0.50
2023-04-30T20:52:45.430Z,1.50
2023-04-30T20:55:13.471Z,1.00
2023-04-30T20:57:41.285Z,1.00
2023-04-30T21:00:09.855Z,1.50
2023-04-30T21:02:38.228Z,3.75
2023-04-30T21:05:07.054Z,4.00
2023-04-30T21:07:35.098Z,3.50
2023-04-30T21:10:03.443Z,3.25
2023-04-30T21:12:31.369Z,3.25
2023-04-30T21:14:59.880Z,4.00
2023-04-30T21:17:28.032Z,2.00
2023-04-30T21:19:56.881Z,3.50
2023-04-30T21:22:25.293Z,5.50
2023-04-30T21:24:53.402Z,3.50
2023-04-30T21:27:21.115Z,3.00
2023-04-30T21:29:49.353Z,3.50
2023-04-30T21:32:17.929Z,4.00
2023-04-30T21:34:45.733Z,3.50
2023-04-30T21:37:16.346Z,1.00
2023-04-30T21:39:45.002Z,2.50
2023-04-30T21:42:13.159Z,3.50
2023-04-30T21:44:41.295Z,1.00
2023-04-30T21:47:10.792Z,3.00
2023-04-30T21:49:39.020Z,3.00
2023-04-30T21:52:08.361Z,6.50
2023-04-30T21:54:36.607Z,5.50
2023-04-30T21:57:04.510Z,3.75
2023-04-30T21:59:32.307Z,3.50
2023-04-30T22:02:03.051Z,3.25
2023-04-30T22:04:34.031Z,5.00
2023-04-30T22:07:02.185Z,4.00
2023-04-30T22:09:30.121Z,4.25
2023-04-30T22:11:58.076Z,6.00
2023-04-30T22:14:25.797Z,3.75
2023-04-30T22:16:53.587Z,4.00
2023-04-30T22:19:21.692Z,4.50
2023-04-30T22:21:49.462Z,4.00
2023-04-30T22:24:17.188Z,5.00
2023-04-30T22:26:45.280Z,3.75
2023-04-30T22:29:13.475Z,8.25
2023-04-30T22:31:41.708Z,10.00
2023-04-30T22:34:09.540Z,12.25
2023-04-30T22:36:37.313Z,7.00
2023-04-30T22:39:05.126Z,7.00
2023-04-30T22:41:34.433Z,7.00
2023-04-30T22:44:02.301Z,7.50
2023-04-30T22:46:30.538Z,8.50
2023-04-30T22:48:58.710Z,9.25
2023-04-30T22:51:26.700Z,8.00
2023-04-30T22:53:55.038Z,8.00
2023-04-30T22:56:23.107Z,3.50
2023-04-30T22:58:51.085Z,8.00
2023-04-30T23:01:20.248Z,11.80
2023-04-30T23:03:48.011Z,14.20
2023-04-30T23:06:15.792Z,12.20
2023-04-30T23:08:44.949Z,16.40
2023-04-30T23:11:12.759Z,12.60
2023-04-30T23:13:41.456Z,14.20
2023-04-30T23:16:10.548Z,14.80
2023-04-30T23:18:38.277Z,16.00
2023-04-30T23:21:06.488Z,12.00
2023-04-30T23:23:34.503Z,7.00
2023-04-30T23:26:02.178Z,8.00
2023-04-30T23:28:29.962Z,6.50
2023-04-30T23:30:58.567Z,5.50
2023-04-30T23:33:26.538Z,8.00
2023-04-30T23:35:55.696Z,8.00
2023-04-30T23:38:23.339Z,8.75
2023-04-30T23:40:50.973Z,10.00
2023-04-30T23:43:18.662Z,11.60
2023-04-30T23:45:46.683Z,11.40
2023-04-30T23:48:14.624Z,10.80
2023-04-30T23:50:42.264Z,7.40
2023-04-30T23:53:09.899Z,11.60
2023-04-30T23:55:37.497Z,10.40
2023-04-30T23:58:05.878Z,10.00
